Time;durP1;ratioP1;P1;durP2;ratioP2;P2;SDS_P1;SDS_P2;PMS_P1;PMS_P2;Temp;Humidity;BMP_temperature;BMP_pressure;BME280_temperature;BME280_humidity;BME280_pressure;Samples;Min_cycle;Max_cycle;Signal;HPM_P1;HPM_P2
2022/06/28 00:00:46;;;;;;;5.40;4.57;;;;;;;22.00;57.46;94924.22;4157963;28;20061;-52
2022/06/28 00:02:47;;;;;;;6.15;4.88;;;;;;;22.00;57.38;94921.53;4144134;28;20144;-50
2022/06/28 00:04:49;;;;;;;5.10;4.57;;;;;;;22.03;57.46;94917.63;4144046;28;20087;-50
2022/06/28 00:06:51;;;;;;;6.25;4.65;;;;;;;22.04;57.20;94925.38;4158816;28;20115;-51
2022/06/28 00:08:53;;;;;;;8.02;5.03;;;;;;;22.03;57.14;94926.44;4159206;28;20124;-52
2022/06/28 00:10:55;;;;;;;5.68;5.07;;;;;;;22.02;57.03;94921.31;4165115;28;20041;-53
2022/06/28 00:12:57;;;;;;;7.60;4.93;;;;;;;22.04;57.01;94920.06;4166452;28;20541;-53
2022/06/28 00:17:19;;;;;;;9.88;5.28;;;;;;;22.09;57.05;94920.22;4157784;28;20108;-51
2022/06/28 00:19:21;;;;;;;4.90;4.40;;;;;;;22.08;57.00;94923.91;4153387;28;20396;-56
2022/06/28 00:21:24;;;;;;;6.07;5.05;;;;;;;22.05;56.75;94919.03;4151096;28;20057;-56
2022/06/28 00:23:26;;;;;;;11.38;4.88;;;;;;;22.06;56.86;94925.19;4158935;28;20053;-57
2022/06/28 00:25:27;;;;;;;7.15;4.70;;;;;;;22.07;56.88;94914.28;4158570;28;20224;-59
2022/06/28 00:27:29;;;;;;;6.47;4.93;;;;;;;22.09;57.34;94920.22;4159116;28;20193;-60
2022/06/28 00:29:31;;;;;;;7.35;5.43;;;;;;;22.09;57.25;94920.22;4157623;28;20764;-58
2022/06/28 00:31:32;;;;;;;6.45;5.07;;;;;;;22.09;57.31;94928.22;4167064;28;20293;-56
2022/06/28 00:33:34;;;;;;;8.18;4.75;;;;;;;22.11;56.98;94922.63;4172915;28;20445;-55
2022/06/28 00:35:36;;;;;;;6.15;5.22;;;;;;;22.14;56.74;94924.06;4158990;28;20055;-56
2022/06/28 00:37:38;;;;;;;5.68;4.97;;;;;;;22.15;56.89;94921.16;4158828;28;20422;-58
2022/06/28 00:39:39;;;;;;;5.72;5.10;;;;;;;22.15;56.66;94920.34;4159293;28;20127;-55
2022/06/28 00:41:41;;;;;;;5.38;4.88;;;;;;;22.14;57.00;94916.88;4158935;28;20160;-58
2022/06/28 00:43:43;;;;;;;6.18;5.35;;;;;;;22.08;57.50;94923.09;4158952;28;20135;-55
2022/06/28 00:45:46;;;;;;;8.32;5.35;;;;;;;21.98;57.69;94928.16;4160721;28;20072;-55
2022/06/28 00:47:48;;;;;;;6.50;5.05;;;;;;;21.92;57.78;94924.53;4169453;28;20049;-57
2022/06/28 00:49:50;;;;;;;6.55;4.68;;;;;;;21.88;58.04;94924.16;4159439;28;20057;-57
2022/06/28 00:51:52;;;;;;;6.50;4.82;;;;;;;21.90;58.19;94926.63;4157395;28;20061;-56
2022/06/28 00:53:54;;;;;;;8.13;5.05;;;;;;;21.93;58.12;94926.16;4159029;28;20491;-55
2022/06/28 00:55:56;;;;;;;7.80;5.28;;;;;;;21.93;58.24;94920.81;4158506;28;20239;-56
2022/06/28 00:57:58;;;;;;;6.15;5.45;;;;;;;21.93;58.12;94923.50;4152780;28;20128;-58
2022/06/28 00:59:59;;;;;;;6.43;5.05;;;;;;;21.92;58.77;94919.22;4159164;28;20046;-53
2022/06/28 01:02:04;;;;;;;8.02;5.22;;;;;;;21.94;58.71;94922.47;4158700;28;20143;-51
2022/06/28 01:04:06;;;;;;;6.55;5.72;;;;;;;21.93;58.72;94920.00;4156525;28;20107;-53
2022/06/28 01:06:08;;;;;;;11.13;5.60;;;;;;;21.94;58.78;94917.13;4156977;28;20098;-54
2022/06/28 01:08:10;;;;;;;7.63;5.38;;;;;;;21.93;59.01;94920.81;4159035;28;20103;-51
2022/06/28 01:10:12;;;;;;;8.10;6.40;;;;;;;21.94;58.90;94919.78;4161630;28;20191;-51
2022/06/28 01:12:14;;;;;;;8.95;5.50;;;;;;;21.93;59.06;94923.50;4175310;28;20057;-53
2022/06/28 01:14:15;;;;;;;6.40;5.30;;;;;;;21.89;59.41;94928.44;4161888;28;20057;-54
2022/06/28 01:16:19;;;;;;;6.72;5.57;;;;;;;21.88;59.30;94928.69;4161906;28;20057;-50
2022/06/28 01:18:21;;;;;;;6.28;5.50;;;;;;;21.88;59.54;94924.16;4160369;28;20054;-54
2022/06/28 01:20:23;;;;;;;6.80;6.10;;;;;;;21.86;59.49;94922.75;4161342;28;20169;-52
2022/06/28 01:22:27;;;;;;;8.13;6.20;;;;;;;21.83;59.74;94910.69;4161606;28;20061;-51
2022/06/28 01:24:29;;;;;;;11.90;6.60;;;;;;;21.82;60.11;94917.06;4187880;28;20488;-53
2022/06/28 01:26:31;;;;;;;8.13;7.03;;;;;;;21.80;60.23;94919.13;4177547;28;20044;-51
2022/06/28 01:28:33;;;;;;;9.68;6.75;;;;;;;21.77;60.25;94918.75;4166490;28;20061;-50
2022/06/28 01:30:35;;;;;;;8.03;6.17;;;;;;;21.73;60.63;94915.75;4155427;28;20565;-51
2022/06/28 01:32:37;;;;;;;10.05;6.15;;;;;;;21.71;60.43;94917.00;4164252;28;20085;-52
2022/06/28 01:34:40;;;;;;;8.37;6.03;;;;;;;21.70;60.56;94913.50;4163546;28;20065;-54
2022/06/28 01:36:41;;;;;;;10.50;6.55;;;;;;;21.73;60.57;94914.94;4166025;28;20060;-54
2022/06/28 01:38:43;;;;;;;8.27;6.93;;;;;;;21.70;60.79;94918.03;4166764;28;20111;-53
2022/06/28 01:40:46;;;;;;;8.40;6.63;;;;;;;21.65;61.15;94922.16;4158743;28;20065;-54
2022/06/28 01:42:47;;;;;;;10.70;6.72;;;;;;;21.65;60.92;94918.69;4163030;28;20523;-54
2022/06/28 01:44:49;;;;;;;10.20;7.35;;;;;;;21.59;61.26;94917.72;4160923;28;20104;-54
2022/06/28 01:46:51;;;;;;;10.98;7.32;;;;;;;21.51;61.30;94919.88;4161384;28;20053;-55
2022/06/28 01:48:54;;;;;;;8.40;6.82;;;;;;;21.47;61.44;94925.66;4175288;28;20106;-53
2022/06/28 01:50:55;;;;;;;9.70;7.38;;;;;;;21.47;61.47;94922.19;4173086;28;20688;-50
2022/06/28 01:52:57;;;;;;;11.95;7.55;;;;;;;21.50;61.50;94921.72;4167856;28;20115;-53
2022/06/28 01:54:59;;;;;;;9.43;7.03;;;;;;;21.51;61.18;94919.88;4177870;28;20052;-53
2022/06/28 01:57:01;;;;;;;10.55;7.07;;;;;;;21.52;61.28;94908.19;4171467;28;20799;-48
2022/06/28 01:59:03;;;;;;;8.50;7.13;;;;;;;21.52;61.34;94917.00;4161304;28;20065;-51
2022/06/28 02:01:05;;;;;;;8.48;6.95;;;;;;;21.51;61.38;94910.03;4160906;28;20049;-54
2022/06/28 02:03:07;;;;;;;8.98;6.82;;;;;;;21.51;61.62;94907.38;4157933;28;20734;-52
2022/06/28 02:05:09;;;;;;;8.45;7.00;;;;;;;21.50;61.42;94904.94;4160796;28;20479;-53
2022/06/28 02:07:11;;;;;;;10.63;7.45;;;;;;;21.46;61.17;94908.00;4161033;28;20057;-52
2022/06/28 02:09:13;;;;;;;8.73;7.53;;;;;;;21.32;61.43;94908.38;4154531;28;20396;-52
2022/06/28 02:11:14;;;;;;;12.45;7.45;;;;;;;21.16;62.04;94909.75;4155443;28;20172;-53
2022/06/28 02:13:16;;;;;;;10.45;7.68;;;;;;;21.05;62.43;94914.75;4160289;28;20058;-54
2022/06/28 02:15:18;;;;;;;8.32;7.30;;;;;;;21.04;62.58;94918.47;4174379;28;20126;-56
2022/06/28 02:17:19;;;;;;;11.20;7.57;;;;;;;21.06;62.79;94918.25;4174147;28;20467;-54
2022/06/28 02:19:21;;;;;;;10.63;8.02;;;;;;;20.88;62.79;94915.53;4160081;28;20683;-52
2022/06/28 02:21:23;;;;;;;11.82;7.65;;;;;;;20.84;63.13;94917.78;4170947;28;20182;-56
2022/06/28 02:23:25;;;;;;;10.65;7.82;;;;;;;20.83;63.10;94916.19;4176912;28;20126;-57
2022/06/28 02:25:27;;;;;;;10.38;7.22;;;;;;;20.85;63.07;94914.94;4175443;28;20048;-58
2022/06/28 02:27:28;;;;;;;9.80;7.38;;;;;;;20.81;62.43;94923.56;4160636;28;20056;-55
2022/06/28 02:29:30;;;;;;;7.97;7.05;;;;;;;20.60;63.09;94919.41;4160710;28;20045;-56
2022/06/28 02:31:32;;;;;;;12.45;7.55;;;;;;;20.50;63.46;94919.88;4160780;28;20049;-55
2022/06/28 02:33:33;;;;;;;7.72;7.00;;;;;;;20.38;63.64;94917.09;4158999;28;20499;-56
2022/06/28 02:40:22;;;;;;;9.15;7.13;;;;;;;20.25;64.17;94925.16;4149655;28;20066;-57
2022/06/28 02:42:24;;;;;;;9.60;7.10;;;;;;;20.25;64.05;94917.16;4157337;28;20049;-57
2022/06/28 02:44:25;;;;;;;8.60;6.80;;;;;;;20.28;64.46;94919.38;4159503;28;20122;-58
2022/06/28 02:46:27;;;;;;;12.85;7.35;;;;;;;20.39;64.57;94926.72;4168600;28;20057;-56
2022/06/28 02:48:29;;;;;;;12.38;8.45;;;;;;;20.51;64.43;94920.69;4157852;28;20068;-58
2022/06/28 02:50:31;;;;;;;11.07;7.32;;;;;;;20.59;63.94;94923.13;4160695;28;20114;-57
2022/06/28 02:52:33;;;;;;;10.82;7.93;;;;;;;20.64;63.82;94915.31;4160046;28;20053;-56
2022/06/28 02:54:34;;;;;;;10.98;8.25;;;;;;;20.69;63.63;94910.13;4169588;28;20059;-55
2022/06/28 02:56:37;;;;;;;11.48;7.78;;;;;;;20.75;63.31;94909.28;4165325;28;20049;-57
2022/06/28 02:58:39;;;;;;;12.93;8.05;;;;;;;20.79;62.89;94910.47;4157823;28;20180;-57
2022/06/28 03:00:41;;;;;;;11.65;7.60;;;;;;;20.82;62.76;94910.06;4155750;28;20084;-57
2022/06/28 03:02:45;;;;;;;9.35;7.53;;;;;;;20.80;62.66;94909.44;4155415;28;20050;-55
2022/06/28 03:04:47;;;;;;;9.73;7.50;;;;;;;20.81;62.87;94903.06;4159448;28;20084;-57
2022/06/28 03:06:49;;;;;;;9.45;7.22;;;;;;;20.91;62.44;94917.75;4153547;28;20545;-56
2022/06/28 03:08:50;;;;;;;13.48;8.10;;;;;;;20.96;62.15;94904.59;4166702;28;20086;-56
2022/06/28 03:10:52;;;;;;;11.20;8.10;;;;;;;21.02;62.11;94917.06;4166091;28;20481;-57
2022/06/28 03:12:54;;;;;;;11.57;7.80;;;;;;;21.04;62.09;94912.31;4168417;28;20401;-56
2022/06/28 03:14:56;;;;;;;11.32;7.65;;;;;;;21.06;62.18;94911.06;4160118;28;20082;-54
2022/06/28 03:16:58;;;;;;;10.25;8.13;;;;;;;21.10;61.96;94913.28;4160649;28;20466;-50
2022/06/28 03:19:00;;;;;;;12.15;7.40;;;;;;;21.12;61.78;94909.34;4146599;28;20108;-54
2022/06/28 03:21:03;;;;;;;12.75;7.60;;;;;;;21.15;61.92;94908.13;4157496;28;20050;-51
2022/06/28 03:23:05;;;;;;;10.23;7.80;;;;;;;21.17;61.96;94908.72;4160857;28;20386;-56
2022/06/28 03:25:13;;;;;;;9.75;7.55;;;;;;;21.15;61.67;94905.47;4160258;28;20068;-53
2022/06/28 03:27:14;;;;;;;12.75;7.47;;;;;;;21.10;61.58;94911.44;4159616;28;20542;-52
2022/06/28 03:29:16;;;;;;;9.93;6.93;;;;;;;21.09;61.35;94909.00;4160496;28;20206;-52
2022/06/28 03:31:18;;;;;;;13.77;7.07;;;;;;;21.07;61.08;94909.22;4157785;28;20054;-54
2022/06/28 03:33:19;;;;;;;7.95;6.32;;;;;;;21.09;60.79;94909.81;4157780;28;20052;-52
2022/06/28 03:35:21;;;;;;;9.50;6.38;;;;;;;21.10;60.63;94908.78;4173596;28;20045;-54
2022/06/28 03:37:23;;;;;;;8.10;6.45;;;;;;;21.10;60.56;94913.28;4159040;28;20107;-54
2022/06/28 03:39:25;;;;;;;9.73;6.75;;;;;;;21.13;60.42;94908.34;4159329;28;20049;-51
2022/06/28 03:41:27;;;;;;;12.98;7.38;;;;;;;21.17;60.30;94912.19;4153025;28;20140;-50
2022/06/28 03:43:28;;;;;;;15.32;8.05;;;;;;;21.07;60.39;94923.34;4158884;28;20534;-50
2022/06/28 03:45:30;;;;;;;19.35;7.40;;;;;;;20.98;60.90;94921.19;4163968;28;20518;-52
2022/06/28 03:47:32;;;;;;;16.58;7.75;;;;;;;20.83;60.93;94927.66;4167528;28;20049;-53
2022/06/28 03:49:34;;;;;;;13.32;7.15;;;;;;;20.51;61.76;94928.69;4160166;28;20107;-53
2022/06/28 03:51:35;;;;;;;14.80;7.78;;;;;;;19.97;63.83;94928.16;4158978;28;20103;-54
2022/06/28 03:53:43;;;;;;;11.02;7.15;;;;;;;19.81;64.53;94937.41;4159161;28;20057;-54
2022/06/28 03:55:45;;;;;;;9.20;7.15;;;;;;;19.92;64.67;94928.81;4159893;28;20530;-55
2022/06/28 03:57:46;;;;;;;11.60;7.35;;;;;;;20.00;64.20;94933.88;4158203;28;20045;-51
2022/06/28 03:59:48;;;;;;;9.65;7.28;;;;;;;20.04;63.83;94932.41;4158975;28;20137;-52
2022/06/28 04:01:50;;;;;;;15.63;7.68;;;;;;;20.14;64.02;94936.47;4160086;28;20049;-51
2022/06/28 04:03:52;;;;;;;13.27;8.30;;;;;;;20.31;63.64;94940.25;4157808;28;20518;-54
2022/06/28 04:05:53;;;;;;;18.00;8.05;;;;;;;20.51;62.87;94944.66;4159354;28;20125;-54
2022/06/28 04:07:55;;;;;;;15.77;7.80;;;;;;;20.68;62.19;94939.66;4158910;28;20045;-53
2022/06/28 04:09:57;;;;;;;12.20;8.15;;;;;;;20.84;61.86;94944.44;4146223;28;20049;-53
2022/06/28 04:11:58;;;;;;;17.33;8.38;;;;;;;20.96;61.57;94950.69;4158818;28;20107;-53
2022/06/28 04:14:00;;;;;;;13.80;8.68;;;;;;;20.81;61.98;94948.34;4163117;28;20087;-55
2022/06/28 04:16:02;;;;;;;9.95;8.13;;;;;;;20.85;61.95;94962.84;4169432;28;20522;-51
2022/06/28 04:18:05;;;;;;;12.60;8.55;;;;;;;20.97;61.50;94959.47;4166941;28;20461;-51
2022/06/28 04:20:07;;;;;;;12.32;9.18;;;;;;;21.08;61.18;94956.13;4163916;28;20118;-52
2022/06/28 04:22:09;;;;;;;17.15;9.32;;;;;;;21.20;60.91;94954.38;4158570;28;20435;-52
2022/06/28 04:24:10;;;;;;;14.93;9.40;;;;;;;21.19;61.08;94955.41;4159176;28;20093;-53
2022/06/28 04:26:13;;;;;;;15.05;10.30;;;;;;;21.25;61.01;94962.53;4165076;28;20102;-55
2022/06/28 04:28:14;;;;;;;16.60;10.30;;;;;;;21.34;60.75;94963.06;4166486;28;20132;-49
2022/06/28 04:30:16;;;;;;;16.13;11.15;;;;;;;21.45;60.42;94964.22;4160829;28;20349;-51
2022/06/28 04:32:18;;;;;;;16.77;10.98;;;;;;;21.55;59.96;94953.03;4158882;28;20116;-50
2022/06/28 04:34:20;;;;;;;23.05;12.30;;;;;;;21.59;59.80;94946.25;4165862;28;20114;-56
2022/06/28 04:36:21;;;;;;;14.77;11.95;;;;;;;21.65;59.68;94948.03;4164460;28;20069;-58
2022/06/28 04:38:23;;;;;;;20.90;12.35;;;;;;;21.65;59.80;94950.69;4158925;28;20556;-58
2022/06/28 04:40:25;;;;;;;21.20;11.57;;;;;;;21.62;59.77;94951.94;4158589;28;20065;-58
2022/06/28 04:42:27;;;;;;;22.08;11.82;;;;;;;21.36;60.37;94958.34;4160314;28;20081;-57
2022/06/28 04:44:29;;;;;;;25.38;11.68;;;;;;;21.14;61.18;94960.56;4159710;28;20127;-56
2022/06/28 04:46:31;;;;;;;21.35;12.10;;;;;;;20.85;62.02;94970.03;4162435;28;20053;-55
2022/06/28 04:48:40;;;;;;;15.75;10.20;;;;;;;20.59;62.84;94965.72;4176684;28;20060;-57
2022/06/28 04:50:42;;;;;;;20.52;10.48;;;;;;;20.54;63.34;94954.84;4173924;28;20079;-57
2022/06/28 04:52:44;;;;;;;16.60;11.55;;;;;;;20.43;63.89;94959.84;4162312;28;20160;-56
2022/06/28 04:54:46;;;;;;;15.48;10.55;;;;;;;20.28;64.53;94959.28;4173488;28;20328;-57
2022/06/28 04:56:47;;;;;;;21.38;11.38;;;;;;;20.16;64.78;94964.47;4163999;28;20418;-56
2022/06/28 04:58:49;;;;;;;17.60;11.10;;;;;;;20.23;64.87;94965.25;4160115;28;20465;-56
2022/06/28 05:00:51;;;;;;;18.02;10.45;;;;;;;20.18;64.89;94967.75;4162516;28;20073;-57
2022/06/28 05:03:12;;;;;;;14.07;9.90;;;;;;;20.08;65.40;94962.06;4159777;28;20050;-57
2022/06/28 05:05:14;;;;;;;16.40;11.48;;;;;;;19.96;65.47;94967.25;4162252;28;20069;-56
2022/06/28 05:07:16;;;;;;;17.05;10.68;;;;;;;19.93;66.03;94964.97;4174775;28;20045;-58
2022/06/28 05:09:18;;;;;;;16.73;12.05;;;;;;;20.01;65.79;94964.75;4162346;28;20432;-56
2022/06/28 05:11:37;;;;;;;15.50;12.20;;;;;;;20.19;65.32;94968.56;4173760;28;20052;-57
2022/06/28 05:13:38;;;;;;;12.55;10.77;;;;;;;20.41;64.88;94959.25;4162557;28;20069;-57
2022/06/28 05:15:40;;;;;;;18.30;11.85;;;;;;;20.54;64.34;94960.16;4161345;28;20126;-59
2022/06/28 05:17:42;;;;;;;15.13;9.70;;;;;;;20.80;64.00;94956.53;4161145;28;20129;-56
2022/06/28 05:19:44;;;;;;;15.43;9.85;;;;;;;21.10;62.65;94959.41;4161634;28;20053;-56
2022/06/28 05:21:46;;;;;;;19.02;11.13;;;;;;;21.24;62.21;94955.56;4161797;28;20127;-60
2022/06/28 05:23:47;;;;;;;19.48;10.43;;;;;;;21.40;61.92;94956.03;4160986;28;20061;-56
2022/06/28 05:25:49;;;;;;;14.68;10.85;;;;;;;21.44;61.55;94954.59;4148585;28;20057;-57
2022/06/28 05:27:51;;;;;;;16.58;10.15;;;;;;;21.42;62.10;94951.31;4160679;28;20056;-51
2022/06/28 05:29:53;;;;;;;16.10;10.02;;;;;;;21.52;62.06;94956.16;4173718;28;20061;-51
2022/06/28 05:31:55;;;;;;;12.75;10.18;;;;;;;21.58;61.78;94956.09;4159583;28;20127;-54
2022/06/28 05:33:57;;;;;;;14.35;9.40;;;;;;;21.73;61.70;94960.25;4159773;28;20145;-50
2022/06/28 05:35:58;;;;;;;16.85;10.68;;;;;;;21.90;60.83;94958.63;4161453;28;20132;-50
2022/06/28 05:38:00;;;;;;;17.17;10.85;;;;;;;21.95;60.40;94960.63;4161879;28;20363;-55
2022/06/28 05:40:03;;;;;;;21.08;9.98;;;;;;;22.00;60.00;94960.75;4161419;28;20045;-50
2022/06/28 05:42:05;;;;;;;14.43;10.03;;;;;;;22.05;59.98;94960.91;4161230;28;20072;-51
2022/06/28 05:44:06;;;;;;;18.08;10.40;;;;;;;22.08;60.16;94966.59;4160979;28;20278;-52
2022/06/28 05:46:08;;;;;;;17.35;9.55;;;;;;;21.85;60.54;94958.47;4161670;28;20053;-50
2022/06/28 05:48:10;;;;;;;15.82;9.98;;;;;;;21.81;60.47;94957.28;4159675;28;20050;-50
2022/06/28 05:50:12;;;;;;;15.05;9.10;;;;;;;21.80;60.46;94961.00;4160829;28;20487;-53
2022/06/28 05:52:14;;;;;;;15.23;9.38;;;;;;;21.67;61.13;94959.28;4160697;28;20049;-50
2022/06/28 05:54:15;;;;;;;17.33;8.75;;;;;;;21.83;60.48;94969.38;4161720;28;20065;-53
2022/06/28 05:56:17;;;;;;;15.68;9.02;;;;;;;22.01;59.66;94965.88;4160371;28;20056;-51
2022/06/28 05:58:19;;;;;;;18.48;9.00;;;;;;;22.25;59.33;94966.00;4160781;28;20565;-51
2022/06/28 06:00:21;;;;;;;12.50;8.40;;;;;;;22.45;58.29;94971.09;4160324;28;20080;-52
2022/06/28 06:02:22;;;;;;;13.98;8.90;;;;;;;22.64;57.40;94979.88;4159780;28;20052;-54
2022/06/28 06:04:25;;;;;;;12.07;8.45;;;;;;;22.78;57.15;94981.31;4161349;28;20081;-53
2022/06/28 06:06:27;;;;;;;12.55;7.70;;;;;;;22.92;56.39;94970.41;4160854;28;20045;-52
2022/06/28 06:08:28;;;;;;;15.35;8.05;;;;;;;23.02;55.68;94976.03;4159686;28;20046;-53
2022/06/28 06:10:30;;;;;;;12.70;7.50;;;;;;;23.18;55.73;94963.84;4160743;28;20111;-52
2022/06/28 06:12:32;;;;;;;9.48;7.35;;;;;;;23.28;54.99;94970.25;4171225;28;20119;-59
2022/06/28 06:14:34;;;;;;;10.48;6.97;;;;;;;23.39;55.29;94965.97;4161368;28;20103;-58
2022/06/28 06:16:36;;;;;;;8.18;6.85;;;;;;;23.51;54.55;94968.63;4160024;28;20046;-56
2022/06/28 06:18:38;;;;;;;8.50;6.75;;;;;;;23.59;53.74;94965.59;4159928;28;20060;-57
2022/06/28 06:20:41;;;;;;;9.85;7.05;;;;;;;23.69;53.54;94965.81;4162332;28;20068;-58
2022/06/28 06:22:42;;;;;;;12.07;8.05;;;;;;;23.75;53.70;94963.25;4171747;28;20053;-57
2022/06/28 06:24:45;;;;;;;13.23;7.72;;;;;;;23.86;53.58;94962.47;4160879;28;20061;-58
2022/06/28 06:26:47;;;;;;;9.98;7.60;;;;;;;23.96;53.56;94954.63;4160642;28;20066;-58
2022/06/28 06:28:48;;;;;;;11.52;7.28;;;;;;;24.08;53.04;94954.63;4160656;28;20060;-60
2022/06/28 06:30:50;;;;;;;12.65;6.90;;;;;;;24.18;53.03;94959.34;4166824;28;20061;-57
2022/06/28 06:32:52;;;;;;;8.65;7.03;;;;;;;24.28;52.21;94956.88;4175956;28;20060;-57
2022/06/28 06:34:53;;;;;;;9.63;7.07;;;;;;;24.37;51.98;94952.78;4175132;28;20048;-57
2022/06/28 06:36:55;;;;;;;15.48;7.00;;;;;;;24.45;51.59;94948.91;4148009;28;20053;-58
2022/06/28 06:38:57;;;;;;;7.60;6.78;;;;;;;24.48;51.47;94951.13;4163909;28;20053;-57
2022/06/28 06:40:59;;;;;;;14.25;7.60;;;;;;;24.55;51.31;94959.03;4171135;28;20049;-57
2022/06/28 06:43:01;;;;;;;8.15;6.53;;;;;;;24.63;51.36;94940.69;4160560;28;20053;-57
2022/06/28 06:45:03;;;;;;;10.80;6.55;;;;;;;24.72;51.03;94949.97;4159276;28;20065;-58
2022/06/28 06:47:04;;;;;;;14.07;7.05;;;;;;;24.53;51.33;94941.31;4160565;28;20176;-57
2022/06/28 06:49:06;;;;;;;10.30;6.43;;;;;;;24.58;51.62;94939.78;4158611;28;20488;-55
2022/06/28 06:51:08;;;;;;;11.43;6.95;;;;;;;24.64;51.35;94936.97;4168226;28;20551;-56
2022/06/28 06:53:10;;;;;;;13.40;6.97;;;;;;;24.64;52.01;94928.91;4160283;28;20171;-58
2022/06/28 06:55:12;;;;;;;12.18;7.43;;;;;;;24.58;52.13;94929.06;4171332;28;20045;-58
2022/06/28 06:57:15;;;;;;;11.57;7.88;;;;;;;24.50;52.43;94928.41;4160223;28;21258;-60
2022/06/28 06:59:17;;;;;;;13.20;7.82;;;;;;;24.51;52.71;94924.69;4159599;28;20589;-59
2022/06/28 07:01:19;;;;;;;12.60;8.68;;;;;;;24.63;52.84;94921.94;4162366;28;20053;-57
2022/06/28 07:03:44;;;;;;;11.77;7.60;;;;;;;24.43;52.72;94921.53;4172395;28;20533;-55
2022/06/28 07:05:46;;;;;;;8.35;7.40;;;;;;;24.45;52.95;94920.25;4157705;28;20045;-57
2022/06/28 07:07:48;;;;;;;11.23;7.25;;;;;;;24.42;51.62;94923.41;4160901;28;20471;-57
2022/06/28 07:09:50;;;;;;;9.55;7.07;;;;;;;24.46;52.15;94932.59;4168737;28;20175;-57
2022/06/28 07:11:52;;;;;;;10.93;7.18;;;;;;;24.65;52.26;94935.09;4174348;28;20061;-60
2022/06/28 07:13:54;;;;;;;13.63;6.88;;;;;;;24.83;50.91;94929.53;4146259;28;20141;-57
2022/06/28 07:15:56;;;;;;;8.60;7.22;;;;;;;25.03;50.35;94926.34;4159832;28;20114;-58
2022/06/28 07:17:57;;;;;;;14.65;7.07;;;;;;;25.21;50.24;94928.00;4159263;28;20410;-58
2022/06/28 07:19:59;;;;;;;11.85;6.35;;;;;;;25.31;49.20;94921.97;4170495;28;20057;-58
2022/06/28 07:22:01;;;;;;;11.68;7.15;;;;;;;25.46;48.03;94924.88;4163608;28;20146;-58
2022/06/28 07:24:02;;;;;;;11.35;7.28;;;;;;;25.50;48.34;94922.53;4159087;28;20108;-57
2022/06/28 07:26:04;;;;;;;14.15;7.50;;;;;;;25.41;48.37;94919.44;4159337;28;20099;-57
2022/06/28 07:28:08;;;;;;;8.75;6.32;;;;;;;25.40;48.01;94927.72;4167569;28;20081;-56
2022/06/28 07:30:10;;;;;;;8.85;6.75;;;;;;;25.38;48.34;94919.94;4162123;28;20394;-58
2022/06/28 07:32:12;;;;;;;10.82;6.20;;;;;;;25.30;48.81;94923.84;4160025;28;20041;-59
2022/06/28 07:34:14;;;;;;;9.40;6.10;;;;;;;25.39;48.49;94926.13;4158448;28;20057;-57
2022/06/28 07:36:15;;;;;;;8.02;6.38;;;;;;;25.61;48.54;94924.28;4159713;28;20050;-57
2022/06/28 07:38:17;;;;;;;10.63;8.35;;;;;;;25.80;48.18;94929.38;4159763;28;20049;-59
2022/06/28 07:40:19;;;;;;;9.05;6.45;;;;;;;26.00;48.31;94928.81;4173154;28;20044;-58
2022/06/28 07:42:21;;;;;;;7.40;6.20;;;;;;;26.10;46.43;94928.97;4158536;28;20053;-58
2022/06/28 07:44:23;;;;;;;9.70;6.03;;;;;;;26.10;46.64;94926.28;4159544;28;20462;-58
2022/06/28 07:46:25;;;;;;;7.72;5.43;;;;;;;26.23;47.10;94936.63;4160368;28;20045;-59
2022/06/28 07:48:27;;;;;;;12.98;6.20;;;;;;;26.37;47.01;94934.34;4171986;28;20079;-58
2022/06/28 07:52:49;;;;;;;6.93;5.75;;;;;;;26.62;45.83;94936.53;4159583;28;20054;-57
2022/06/28 07:54:51;;;;;;;7.15;5.75;;;;;;;26.50;45.60;94936.66;4159941;28;20053;-57
2022/06/28 07:56:52;;;;;;;7.85;6.00;;;;;;;26.42;45.48;94931.72;4159838;28;20510;-57
2022/06/28 07:58:54;;;;;;;8.18;5.45;;;;;;;26.53;45.86;94933.44;4144903;28;20068;-58
2022/06/28 08:00:56;;;;;;;31.73;19.38;;;;;;;26.71;45.97;94923.44;4154753;28;20366;-57
2022/06/28 08:02:58;;;;;;;9.15;5.18;;;;;;;26.65;44.87;94921.75;4148755;28;20057;-58
2022/06/28 08:05:00;;;;;;;6.00;5.05;;;;;;;26.78;45.08;94921.38;4159949;28;20045;-57
2022/06/28 08:07:01;;;;;;;8.35;5.00;;;;;;;26.89;45.04;94919.59;4145950;28;20480;-56
2022/06/28 08:09:03;;;;;;;10.25;4.43;;;;;;;26.98;44.27;94922.63;4158749;28;20218;-57
2022/06/28 08:11:05;;;;;;;6.35;4.00;;;;;;;27.07;44.38;94913.00;4167497;28;20098;-59
2022/06/28 08:13:07;;;;;;;5.38;4.63;;;;;;;27.18;44.50;94912.00;4165126;28;20068;-58
2022/06/28 08:15:12;;;;;;;6.50;4.03;;;;;;;27.20;43.73;94911.75;4159639;28;20060;-60
2022/06/28 08:17:14;;;;;;;5.93;3.75;;;;;;;26.89;42.73;94915.00;4160669;28;20675;-62
2022/06/28 08:19:16;;;;;;;5.90;4.20;;;;;;;26.90;43.38;94908.56;4171822;28;20104;-58
2022/06/28 08:21:17;;;;;;;8.25;4.30;;;;;;;26.96;42.98;94904.84;4170429;28;20099;-56
2022/06/28 08:23:19;;;;;;;6.05;4.35;;;;;;;26.85;43.26;94903.16;4168566;28;20064;-56
2022/06/28 08:25:21;;;;;;;7.70;4.45;;;;;;;26.74;43.80;94909.50;4175731;28;20054;-52
2022/06/28 08:27:23;;;;;;;7.47;4.57;;;;;;;26.64;44.46;94914.78;4163559;28;20049;-52
2022/06/28 08:29:24;;;;;;;11.23;4.68;;;;;;;26.80;44.25;94910.34;4171183;28;20438;-58
2022/06/28 08:31:26;;;;;;;7.38;4.80;;;;;;;27.00;44.63;94913.22;4161784;28;20100;-56
2022/06/28 08:33:28;;;;;;;5.65;4.72;;;;;;;27.04;43.73;94908.13;4148192;28;20050;-56
2022/06/28 08:35:30;;;;;;;7.28;4.95;;;;;;;27.18;44.06;94912.00;4149160;28;20065;-56
2022/06/28 08:37:31;;;;;;;4.80;4.25;;;;;;;27.30;43.35;94909.16;4161931;28;20053;-61
2022/06/28 08:39:33;;;;;;;5.13;4.00;;;;;;;27.33;42.71;94917.50;4162914;28;20076;-56
2022/06/28 08:41:35;;;;;;;5.47;4.10;;;;;;;27.46;42.29;94905.47;4162632;28;20057;-56
2022/06/28 08:43:37;;;;;;;5.95;4.10;;;;;;;27.63;42.24;94917.97;4162186;28;20280;-58
2022/06/28 08:45:39;;;;;;;7.90;3.92;;;;;;;27.67;42.15;94917.19;4162050;28;20581;-58
2022/06/28 08:47:42;;;;;;;6.70;4.13;;;;;;;27.70;42.00;94911.25;4161062;28;20061;-58
2022/06/28 08:49:48;;;;;;;7.45;4.25;;;;;;;27.69;42.62;94909.66;4160416;28;20100;-58
2022/06/28 08:51:57;;;;;;;;;;;;;;;27.53;41.47;94913.31;4175804;28;20152;-60
2022/06/28 08:54:00;;;;;;;6.53;4.00;;;;;;;27.22;41.86;94912.34;4166353;28;19956;-55
2022/06/28 08:56:02;;;;;;;;;;;;;;;27.34;41.87;94910.25;4171896;28;20099;-56
2022/06/28 08:58:08;;;;;;;13.65;9.43;;;;;;;27.43;42.90;94908.72;4162331;28;19951;-57
2022/06/28 09:00:11;;;;;;;6.85;4.28;;;;;;;27.61;42.27;94909.34;4161997;28;20095;-59
2022/06/28 09:02:14;;;;;;;7.90;4.97;;;;;;;27.69;41.43;94911.56;4161606;28;20391;-57
2022/06/28 09:04:16;;;;;;;4.38;3.97;;;;;;;27.78;42.08;94910.78;4161134;28;20131;-56
2022/06/28 09:06:17;;;;;;;5.70;4.20;;;;;;;27.69;40.38;94912.34;4162019;28;20057;-56
2022/06/28 09:08:19;;;;;;;5.95;4.15;;;;;;;27.56;41.37;94915.50;4172049;28;20553;-57
2022/06/28 09:10:21;;;;;;;8.85;3.80;;;;;;;27.76;41.17;94918.28;4167048;28;20569;-58
2022/06/28 09:12:43;;;;;;;3.65;3.33;;;;;;;27.80;39.69;94907.81;4177534;28;20594;-57
2022/06/28 09:14:44;;;;;;;7.88;4.07;;;;;;;27.82;40.20;94910.25;4179310;28;20118;-56
2022/06/28 09:16:46;;;;;;;5.50;3.78;;;;;;;27.86;40.14;94906.81;4165975;28;20460;-57
2022/06/28 09:18:48;;;;;;;6.43;4.10;;;;;;;27.89;40.48;94911.66;4160732;28;20053;-57
2022/06/28 09:20:52;;;;;;;4.28;3.70;;;;;;;28.10;40.91;94907.16;4174949;28;20204;-51
2022/06/28 09:22:54;;;;;;;8.07;3.67;;;;;;;28.24;41.22;94901.28;4160988;28;20053;-53
2022/06/28 09:24:56;;;;;;;4.00;3.60;;;;;;;28.36;40.71;94908.06;4162406;28;20057;-54
2022/06/28 09:27:06;;;;;;;6.25;3.67;;;;;;;28.61;41.00;94903.00;4161704;28;20084;-55
2022/06/28 09:29:13;;;;;;;6.28;4.00;;;;;;;28.82;40.53;94896.56;4171339;28;20041;-52
2022/06/28 09:31:20;;;;;;;4.88;4.10;;;;;;;28.91;39.96;94904.91;4158611;28;20444;-49
2022/06/28 09:33:26;;;;;;;4.25;3.33;;;;;;;29.00;40.23;94901.44;4172890;28;20091;-51
2022/06/28 09:35:28;;;;;;;5.93;3.78;;;;;;;29.06;38.81;94901.41;4161094;28;20503;-52
2022/06/28 09:37:35;;;;;;;7.97;4.20;;;;;;;29.15;39.19;94910.63;4166893;28;20045;-51
2022/06/28 09:39:37;;;;;;;4.85;3.80;;;;;;;29.26;39.52;94906.84;4168385;28;20073;-52
2022/06/28 09:41:43;;;;;;;5.47;4.13;;;;;;;29.41;39.38;94895.22;4171293;28;20055;-51